Polaris, Montana
Current Conditions -  °F | °C
As of 10:53 AM on Thursday 30 Oct 2014 (Local Time) from KDLN Reporting Station
Scattered Clouds Scattered Clouds  
Wind Chill: 43°   Ceiling: Unl
Heat Index: 43°   Visibility: 10mi
Dew Point: 30°   Wind: 3mph
Humidity: 60%   Direction: 180°S
Pressure: 30.29"   Gusts: NA
Location:  45.37°N, 113.12°W
Report Text: KDLN 301653Z AUTO 18003KT 10SM SCT075 06/M01 A3029 RMK AO2 SLP262 T00611011
Loading
Personal Weather Stations






























Interactive Weather Map
Tropical Storm Tracking
New forecast layout! Learn more

10-Day Weather Forecast

Advertisements
Track Severe Weather on mobile